Aérodrome :
LOGIN :

S'inscrire | Disclaimer

   EN    FR    IT 

 










Légende :    VFR   VFR Marginal   IFR   IFR Intensif   IFR Très Intensif
Visi : 
Plafond : 
>= 8 km
>= 3000ft
5 à 8 km
1000 à 3000 ft
1500m à 5 km
500 à 1000 ft
800 à 1500m
200 à 500 ft
< 800m
< 200 ft
Symboles :   Orages  Brouillard  Fortes neiges  Fortes précipitations  Vent > 20 kt
SIGMETs :   Divers  Orages  Givrage  Turbulence  Onde Orograph.  Cendres Volcan.







- Altitude de l'aérodrome : 313 ft
- Code IATA : LEH
- Voir les cartes d'approche


LFOH - Le Havre Octeville

DERNIER METAR :
  • 271330Z AUTO 30009KT 280V340 CAVOK 19/15 Q1017 NOSIG

METARs EXPIRÉS :
  • 271300Z AUTO 29010KT CAVOK 19/15 Q1017 BECMG 35012KT
  • 271230Z AUTO 29008KT 270V330 CAVOK 19/15 Q1017 NOSIG
  • 271200Z AUTO 28012KT CAVOK 19/16 Q1017 BECMG 35012KT
  • 271130Z AUTO 29008KT 250V320 CAVOK 18/15 Q1017 NOSIG
  • 271100Z AUTO 28009KT CAVOK 18/15 Q1017 NOSIG
  • 271030Z AUTO 29009KT 260V320 9999 FEW023 19/16 Q1017 NOSIG

TAF TAF LFOH
Valide du 27 à 12h jusqu'au 28 à 12h UTC


271100Z 2712/2812 28012KT CAVOK
BECMG 2712/2714 35012KT
BECMG 2716/2719 VRB02KT
PROB30
TEMPO 2800/2806 2000 TSRAGR BKN060CB
ATIS : +33 2 35 54 64 93
Pas de NOTAMs connus pour ce terrain.



MET'MAP, la Météo Aéronautique d'un coup d'oeil ! - Copyright ORBIFLY Décembre 2007 - Disclaimer

ORBIFLY MET'MAP TEAM :

Programmation & Développement : Alexandra Zaïnal
Conception & Développement : Baudouin d'Aumeries
Co-Programmation & Développement : Marc-Olivier Méhu
Soutien technique & logistique : Manuel Goepfert

Contact : metmap@orbifly.com




SOURCES & CREDITS :

   NOAA